createdAt,value
2023-04-07T00:01:18.193Z,44.28
2023-04-07T00:04:22.127Z,44.25
2023-04-07T00:07:27.621Z,44.51
2023-04-07T00:10:31.488Z,44.80
2023-04-07T00:13:35.298Z,44.29
2023-04-07T00:16:38.911Z,44.47
2023-04-07T00:19:42.728Z,44.43
2023-04-07T00:22:48.012Z,44.50
2023-04-07T00:25:51.784Z,43.94
2023-04-07T00:28:55.662Z,43.91
2023-04-07T00:31:59.412Z,44.03
2023-04-07T00:35:03.155Z,44.25
2023-04-07T00:38:08.548Z,44.70
2023-04-07T00:41:12.463Z,44.20
2023-04-07T00:44:16.432Z,44.10
2023-04-07T00:47:20.345Z,43.99
2023-04-07T00:50:24.239Z,43.45
2023-04-07T00:53:30.624Z,43.65
2023-04-07T00:56:34.607Z,43.84
2023-04-07T00:59:38.724Z,44.94
2023-04-07T01:02:46.924Z,45.33
2023-04-07T01:05:57.440Z,44.55
2023-04-07T01:09:06.780Z,44.70
2023-04-07T01:12:17.323Z,44.27
2023-04-07T01:15:24.271Z,44.93
2023-04-07T01:18:35.024Z,43.98
2023-04-07T01:21:40.365Z,44.61
2023-04-07T01:25:14.427Z,43.95
2023-04-07T01:28:43.540Z,44.29
2023-04-07T01:31:51.333Z,44.75
2023-04-07T01:34:57.441Z,44.31
2023-04-07T01:38:02.020Z,43.95
2023-04-07T01:41:07.357Z,44.45
2023-04-07T01:44:12.259Z,44.96
2023-04-07T01:47:18.337Z,45.20
2023-04-07T01:50:23.556Z,45.12
2023-04-07T01:53:27.750Z,45.95
2023-04-07T01:56:31.589Z,45.65
2023-04-07T01:59:37.505Z,46.04
2023-04-07T02:02:47.223Z,45.86
2023-04-07T02:05:53.969Z,46.21
2023-04-07T02:09:07.643Z,46.00
2023-04-07T02:12:15.919Z,46.08
2023-04-07T02:15:30.472Z,45.80
2023-04-07T02:18:36.743Z,45.47
2023-04-07T02:21:42.245Z,45.39
2023-04-07T02:24:46.341Z,45.15
2023-04-07T02:27:50.172Z,45.13
2023-04-07T02:30:55.266Z,45.28
2023-04-07T02:34:00.390Z,44.34
2023-04-07T02:37:04.149Z,44.77
2023-04-07T02:40:09.305Z,44.37
2023-04-07T02:43:12.977Z,44.13
2023-04-07T02:46:16.782Z,43.82
2023-04-07T02:49:22.122Z,44.21
2023-04-07T02:52:25.800Z,44.32
2023-04-07T02:55:30.784Z,43.83
2023-04-07T02:58:34.502Z,44.36
2023-04-07T03:01:39.204Z,43.71
2023-04-07T03:04:45.614Z,43.74
2023-04-07T03:07:49.704Z,43.73
2023-04-07T03:10:53.836Z,44.44
2023-04-07T03:14:03.103Z,44.45
2023-04-07T03:17:08.660Z,44.34
2023-04-07T03:20:14.439Z,44.93
2023-04-07T03:23:18.409Z,44.70
2023-04-07T03:26:22.208Z,44.70
2023-04-07T03:29:26.966Z,44.38
2023-04-07T03:32:30.797Z,44.61
2023-04-07T03:35:36.207Z,44.49
2023-04-07T03:38:39.888Z,44.58
2023-04-07T03:41:43.591Z,44.42
2023-04-07T03:44:47.641Z,43.80
2023-04-07T03:47:52.140Z,44.02
2023-04-07T03:50:59.908Z,44.39
2023-04-07T03:54:03.912Z,44.60
2023-04-07T03:57:19.263Z,44.05
2023-04-07T04:00:25.431Z,44.60
2023-04-07T04:03:41.574Z,44.11
2023-04-07T04:07:01.280Z,44.91
2023-04-07T04:10:22.277Z,44.29
2023-04-07T04:13:29.335Z,44.67
2023-04-07T04:16:36.935Z,45.18
2023-04-07T04:19:47.228Z,44.55
2023-04-07T04:23:00.443Z,44.43
2023-04-07T04:26:05.076Z,43.75
2023-04-07T04:29:10.955Z,43.81
2023-04-07T04:32:18.026Z,44.02
2023-04-07T04:35:22.172Z,43.44
2023-04-07T04:38:47.678Z,43.07
2023-04-07T04:41:54.911Z,43.44
2023-04-07T04:45:02.085Z,43.24
2023-04-07T04:48:08.320Z,42.77
2023-04-07T04:51:12.050Z,42.09
2023-04-07T04:54:20.979Z,42.18
2023-04-07T04:57:25.626Z,42.13
2023-04-07T05:00:29.772Z,42.99
2023-04-07T05:03:38.733Z,42.45
2023-04-07T05:06:50.688Z,42.79
2023-04-07T05:09:59.188Z,42.51
2023-04-07T05:13:03.673Z,42.40
2023-04-07T05:16:08.590Z,42.31
2023-04-07T05:19:13.662Z,42.40
2023-04-07T05:22:17.766Z,42.04
2023-04-07T05:25:27.143Z,41.37
2023-04-07T05:28:35.417Z,41.46
2023-04-07T05:31:43.287Z,40.91
2023-04-07T05:34:50.867Z,40.79
2023-04-07T05:37:55.472Z,40.64
2023-04-07T05:41:01.003Z,39.58
2023-04-07T05:44:10.521Z,39.24
2023-04-07T05:47:17.794Z,38.92
2023-04-07T05:50:22.111Z,39.18
2023-04-07T05:53:27.475Z,38.78
2023-04-07T05:56:33.216Z,38.45
2023-04-07T05:59:37.721Z,38.13
2023-04-07T06:02:41.865Z,37.63
2023-04-07T06:05:52.747Z,37.87
2023-04-07T06:08:58.251Z,36.75
2023-04-07T06:12:05.387Z,36.92
2023-04-07T06:15:10.358Z,36.01
2023-04-07T06:18:15.297Z,35.50
2023-04-07T06:21:19.080Z,35.02
2023-04-07T06:24:25.339Z,35.69
2023-04-07T06:27:30.714Z,35.06
2023-04-07T06:30:35.702Z,34.72
2023-04-07T06:33:41.460Z,34.53
2023-04-07T06:36:46.454Z,34.45
2023-04-07T06:39:50.788Z,34.30
2023-04-07T06:42:56.808Z,34.33
2023-04-07T06:46:06.677Z,33.89
2023-04-07T06:49:10.699Z,33.21
2023-04-07T06:52:14.573Z,33.26
2023-04-07T06:55:18.510Z,34.00
2023-04-07T06:58:23.778Z,32.88
2023-04-07T07:01:28.159Z,32.98
2023-04-07T07:04:32.059Z,32.19
2023-04-07T07:07:36.309Z,32.05
2023-04-07T07:10:40.078Z,31.29
2023-04-07T07:13:46.342Z,31.38
2023-04-07T07:16:50.477Z,30.54
2023-04-07T07:19:54.428Z,30.78
2023-04-07T07:22:58.730Z,30.85
2023-04-07T07:26:02.492Z,30.52
2023-04-07T07:29:07.812Z,30.46
2023-04-07T07:32:11.622Z,30.75
2023-04-07T07:35:15.704Z,30.02
2023-04-07T07:38:19.523Z,30.13
2023-04-07T07:41:23.354Z,29.68
2023-04-07T07:44:30.767Z,30.22
2023-04-07T07:47:37.961Z,30.09
2023-04-07T07:50:42.962Z,29.91
2023-04-07T07:53:47.472Z,29.82
2023-04-07T07:56:52.032Z,29.65
2023-04-07T07:59:57.366Z,29.36
2023-04-07T08:03:01.503Z,29.37
2023-04-07T08:06:05.902Z,29.17
2023-04-07T08:09:09.740Z,29.54
2023-04-07T08:12:13.470Z,29.65
2023-04-07T08:15:18.907Z,29.43
2023-04-07T08:18:23.414Z,29.66
2023-04-07T08:21:28.152Z,29.59
2023-04-07T08:24:32.030Z,28.99
2023-04-07T08:27:36.201Z,29.34
2023-04-07T08:30:41.550Z,29.47
2023-04-07T08:33:45.790Z,28.58
2023-04-07T08:36:50.032Z,28.34
2023-04-07T08:39:53.869Z,28.05
2023-04-07T08:43:00.653Z,28.19
2023-04-07T08:46:06.530Z,27.67
2023-04-07T08:49:14.266Z,27.61
2023-04-07T08:52:22.783Z,27.66
2023-04-07T08:55:27.383Z,27.76
2023-04-07T08:58:32.315Z,26.98
2023-04-07T09:01:38.893Z,27.19
2023-04-07T09:04:44.662Z,27.60
2023-04-07T09:07:48.667Z,27.45
2023-04-07T09:10:52.493Z,27.30
2023-04-07T09:13:57.154Z,26.92
2023-04-07T09:17:02.723Z,27.40
2023-04-07T09:20:07.477Z,27.19
2023-04-07T09:23:30.854Z,28.19
2023-04-07T09:26:34.816Z,28.40
2023-04-07T09:29:39.368Z,29.16
2023-04-07T09:32:44.968Z,28.44
2023-04-07T09:35:53.889Z,28.10
2023-04-07T09:38:57.928Z,28.22
2023-04-07T09:42:08.366Z,28.64
2023-04-07T09:45:23.849Z,29.22
2023-04-07T09:48:36.719Z,28.31
2023-04-07T09:51:40.620Z,28.68
2023-04-07T09:54:44.632Z,28.34
2023-04-07T09:57:50.450Z,28.90
2023-04-07T10:00:54.348Z,28.53
2023-04-07T10:04:01.426Z,27.88
2023-04-07T10:07:06.690Z,28.02
2023-04-07T10:10:11.446Z,28.14
2023-04-07T10:13:15.771Z,28.32
2023-04-07T10:16:19.794Z,28.55
2023-04-07T10:19:27.189Z,27.61
2023-04-07T10:22:32.526Z,28.03
2023-04-07T10:25:37.550Z,27.46
2023-04-07T10:28:45.829Z,28.43
2023-04-07T10:31:50.660Z,28.20
2023-04-07T10:35:01.352Z,27.51
2023-04-07T10:38:14.117Z,27.30
2023-04-07T10:41:37.856Z,27.39
2023-04-07T10:44:50.986Z,27.75
2023-04-07T10:48:13.081Z,28.00
2023-04-07T10:51:19.472Z,27.73
2023-04-07T10:54:29.046Z,27.22
2023-04-07T10:57:33.420Z,27.45
2023-04-07T11:00:37.303Z,28.20
2023-04-07T11:03:42.756Z,29.00
2023-04-07T11:06:51.219Z,28.83
2023-04-07T11:10:13.572Z,28.60
2023-04-07T11:13:18.817Z,28.37
2023-04-07T11:16:37.552Z,28.52
2023-04-07T11:19:53.232Z,28.34
2023-04-07T11:23:02.890Z,28.28
2023-04-07T11:26:07.111Z,29.23
2023-04-07T11:29:12.409Z,29.31
2023-04-07T11:32:16.835Z,28.75
2023-04-07T11:35:21.481Z,28.44
2023-04-07T11:38:28.794Z,28.47
2023-04-07T11:41:34.209Z,29.41
2023-04-07T11:44:46.914Z,29.59
2023-04-07T11:47:51.389Z,28.84
2023-04-07T11:50:55.292Z,29.90
2023-04-07T11:54:00.571Z,29.80
2023-04-07T11:57:04.413Z,29.91
2023-04-07T12:00:08.910Z,30.20
2023-04-07T12:03:15.027Z,30.39
2023-04-07T12:06:30.994Z,29.92
2023-04-07T12:09:37.831Z,29.55
2023-04-07T12:12:46.818Z,30.29
2023-04-07T12:15:50.614Z,30.13
2023-04-07T12:18:54.619Z,29.40
2023-04-07T12:21:58.839Z,29.73
2023-04-07T12:25:04.258Z,30.71
2023-04-07T12:28:08.137Z,30.69
2023-04-07T12:31:12.627Z,31.20
2023-04-07T12:34:16.709Z,31.18
2023-04-07T12:37:20.471Z,30.97
2023-04-07T12:40:26.475Z,30.85
2023-04-07T12:43:30.380Z,30.31
2023-04-07T12:46:34.181Z,30.81
2023-04-07T12:49:38.069Z,30.75
2023-04-07T12:52:42.554Z,30.79
2023-04-07T12:55:50.510Z,31.03
2023-04-07T12:58:54.948Z,32.48
2023-04-07T13:02:00.241Z,32.32
2023-04-07T13:05:04.990Z,32.88
2023-04-07T13:08:09.369Z,33.42
2023-04-07T13:11:14.609Z,32.16
2023-04-07T13:14:18.399Z,31.89
2023-04-07T13:17:22.327Z,32.07
2023-04-07T13:20:28.447Z,32.42
2023-04-07T13:23:42.263Z,32.35
2023-04-07T13:26:49.647Z,32.00
2023-04-07T13:29:53.424Z,32.39
2023-04-07T13:32:57.513Z,32.90
2023-04-07T13:36:01.652Z,33.27
2023-04-07T13:39:05.596Z,33.64
2023-04-07T13:42:12.581Z,33.86
2023-04-07T13:45:16.671Z,34.59
2023-04-07T13:48:21.060Z,33.94
2023-04-07T13:51:24.973Z,34.05
2023-04-07T13:54:28.878Z,33.94
2023-04-07T13:57:34.317Z,34.00
2023-04-07T14:00:38.790Z,34.03
2023-04-07T14:03:43.253Z,34.66
2023-04-07T14:06:47.342Z,34.88
2023-04-07T14:09:51.173Z,34.54
2023-04-07T14:12:56.530Z,35.04
2023-04-07T14:16:00.562Z,34.66
2023-04-07T14:19:05.065Z,34.96
2023-04-07T14:22:09.023Z,35.22
2023-04-07T14:25:13.029Z,35.67
2023-04-07T14:28:18.499Z,35.42
2023-04-07T14:31:22.408Z,35.83
2023-04-07T14:34:26.297Z,35.68
2023-04-07T14:37:30.989Z,35.82
2023-04-07T14:40:34.673Z,36.15
2023-04-07T14:43:40.492Z,36.77
2023-04-07T14:46:44.521Z,36.93
2023-04-07T14:49:48.733Z,36.98
2023-04-07T14:52:53.999Z,37.02
2023-04-07T14:55:57.750Z,36.53
2023-04-07T14:59:03.644Z,36.62
2023-04-07T15:02:08.006Z,36.62
2023-04-07T15:05:12.542Z,36.71
2023-04-07T15:08:16.396Z,36.69
2023-04-07T15:11:20.198Z,36.65
2023-04-07T15:14:25.402Z,36.71
2023-04-07T15:17:42.529Z,36.83
2023-04-07T15:20:48.038Z,37.62
2023-04-07T15:23:51.858Z,38.88
2023-04-07T15:26:57.320Z,39.89
2023-04-07T15:30:02.627Z,39.84
2023-04-07T15:33:06.618Z,39.65
2023-04-07T15:36:10.652Z,40.03
2023-04-07T15:39:14.524Z,40.49
2023-04-07T15:42:18.272Z,40.34
2023-04-07T15:45:23.845Z,40.92
2023-04-07T15:48:27.723Z,41.00
2023-04-07T15:51:31.866Z,41.13
2023-04-07T15:54:35.650Z,41.28
2023-04-07T15:57:39.642Z,41.75
2023-04-07T16:00:45.188Z,42.24
2023-04-07T16:03:49.558Z,42.36
2023-04-07T16:06:53.832Z,42.33
2023-04-07T16:09:57.829Z,43.54
2023-04-07T16:13:01.581Z,43.44
2023-04-07T16:16:07.996Z,43.81
2023-04-07T16:19:12.175Z,43.72
2023-04-07T16:22:16.079Z,43.44
2023-04-07T16:25:20.182Z,43.66
2023-04-07T16:28:24.035Z,43.89
2023-04-07T16:31:29.420Z,44.15
2023-04-07T16:34:33.229Z,45.07
2023-04-07T16:37:37.404Z,45.50
2023-04-07T16:40:42.754Z,46.38
2023-04-07T16:43:49.766Z,46.28
2023-04-07T16:46:55.405Z,46.71
2023-04-07T16:49:59.728Z,47.15
2023-04-07T16:53:03.716Z,47.12
2023-04-07T16:56:07.780Z,47.32
2023-04-07T16:59:11.795Z,48.09
2023-04-07T17:02:17.591Z,46.87
2023-04-07T17:05:21.521Z,47.96
2023-04-07T17:08:26.038Z,47.64
2023-04-07T17:11:29.849Z,47.98
2023-04-07T17:14:33.606Z,48.30
2023-04-07T17:17:39.749Z,48.53
2023-04-07T17:20:43.704Z,48.51
2023-04-07T17:23:47.874Z,49.13
2023-04-07T17:26:51.838Z,49.27
2023-04-07T17:29:56.168Z,49.45
2023-04-07T17:33:01.646Z,49.03
2023-04-07T17:36:05.636Z,49.89
2023-04-07T17:39:09.426Z,49.93
2023-04-07T17:42:13.255Z,49.83
2023-04-07T17:45:18.025Z,49.91
2023-04-07T17:48:23.444Z,49.92
2023-04-07T17:51:27.824Z,50.49
2023-04-07T17:54:31.730Z,50.56
2023-04-07T17:57:36.197Z,50.51
2023-04-07T18:00:40.033Z,51.04
2023-04-07T18:03:45.498Z,51.78
2023-04-07T18:06:49.419Z,51.86
2023-04-07T18:09:53.233Z,52.55
2023-04-07T18:12:56.998Z,52.49
2023-04-07T18:16:01.098Z,51.81
2023-04-07T18:19:06.591Z,51.56
2023-04-07T18:22:11.305Z,52.23
2023-04-07T18:25:15.345Z,52.46
2023-04-07T18:28:19.247Z,52.39
2023-04-07T18:31:23.077Z,52.27
2023-04-07T18:34:28.402Z,52.27
2023-04-07T18:37:32.421Z,51.36
2023-04-07T18:40:36.343Z,51.69
2023-04-07T18:43:40.174Z,51.32
2023-04-07T18:46:43.945Z,52.03
2023-04-07T18:49:49.716Z,51.79
2023-04-07T18:52:53.574Z,53.18
2023-04-07T18:55:57.398Z,51.26
2023-04-07T18:59:01.552Z,51.02
2023-04-07T19:02:05.486Z,50.54
2023-04-07T19:05:11.086Z,48.93
2023-04-07T19:08:14.960Z,49.35
2023-04-07T19:11:19.605Z,49.10
2023-04-07T19:14:23.536Z,48.14
2023-04-07T19:17:28.244Z,48.09
2023-04-07T19:20:34.095Z,49.16
2023-04-07T19:23:38.704Z,48.28
2023-04-07T19:26:43.248Z,48.94
2023-04-07T19:29:47.128Z,48.33
2023-04-07T19:32:51.295Z,48.59
2023-04-07T19:35:57.290Z,48.88
2023-04-07T19:39:01.377Z,49.16
2023-04-07T19:42:05.722Z,48.81
2023-04-07T19:45:10.533Z,48.92
2023-04-07T19:48:14.427Z,48.65
2023-04-07T19:51:19.702Z,48.50
2023-04-07T19:54:23.784Z,48.88
2023-04-07T19:57:28.670Z,48.47
2023-04-07T20:00:33.580Z,48.69
2023-04-07T20:03:39.778Z,49.03
2023-04-07T20:06:45.161Z,48.55
2023-04-07T20:09:50.906Z,49.29
2023-04-07T20:12:54.759Z,49.67
2023-04-07T20:15:58.631Z,49.36
2023-04-07T20:19:03.536Z,49.34
2023-04-07T20:22:08.934Z,49.65
2023-04-07T20:25:12.903Z,49.15
2023-04-07T20:28:16.785Z,48.88
2023-04-07T20:31:20.764Z,49.10
2023-04-07T20:34:24.814Z,49.13
2023-04-07T20:37:30.181Z,48.85
2023-04-07T20:40:36.923Z,49.09
2023-04-07T20:43:40.824Z,49.54
2023-04-07T20:46:47.130Z,48.91
2023-04-07T20:49:52.945Z,49.44
2023-04-07T20:52:58.188Z,49.17
2023-04-07T20:56:03.258Z,48.74
2023-04-07T20:59:07.059Z,49.06
2023-04-07T21:02:11.062Z,48.79
2023-04-07T21:05:15.040Z,48.40
2023-04-07T21:08:21.470Z,47.86
2023-04-07T21:11:25.283Z,48.03
2023-04-07T21:14:29.216Z,47.03
2023-04-07T21:17:33.143Z,46.76
2023-04-07T21:20:38.109Z,46.77
2023-04-07T21:23:43.362Z,47.55
2023-04-07T21:26:47.184Z,47.01
2023-04-07T21:29:51.017Z,47.39
2023-04-07T21:32:54.946Z,47.21
2023-04-07T21:35:59.339Z,46.78
2023-04-07T21:39:04.798Z,46.59
2023-04-07T21:42:08.541Z,46.40
2023-04-07T21:45:13.302Z,46.80
2023-04-07T21:48:20.958Z,47.33
2023-04-07T21:51:24.818Z,46.89
2023-04-07T21:54:30.069Z,47.58
2023-04-07T21:57:34.010Z,47.82
2023-04-07T22:00:38.592Z,47.49
2023-04-07T22:03:42.584Z,47.56
2023-04-07T22:06:46.358Z,47.82
2023-04-07T22:09:51.644Z,48.20
2023-04-07T22:12:55.450Z,47.46
2023-04-07T22:16:01.476Z,47.16
2023-04-07T22:19:05.230Z,47.20
2023-04-07T22:22:08.995Z,49.25
2023-04-07T22:25:14.168Z,47.82
2023-04-07T22:28:17.905Z,47.67
2023-04-07T22:31:21.734Z,47.97
2023-04-07T22:34:25.548Z,47.68
2023-04-07T22:37:29.232Z,49.08
2023-04-07T22:40:34.404Z,48.13
2023-04-07T22:43:38.181Z,48.16
2023-04-07T22:46:41.822Z,48.12
2023-04-07T22:49:45.854Z,48.41
2023-04-07T22:52:49.595Z,47.97
2023-04-07T22:55:54.812Z,47.68
2023-04-07T22:59:05.762Z,47.64
2023-04-07T23:02:09.920Z,48.02
2023-04-07T23:05:13.831Z,47.51
2023-04-07T23:08:17.524Z,47.13
2023-04-07T23:11:22.757Z,47.78
2023-04-07T23:14:26.522Z,47.84
2023-04-07T23:17:30.200Z,47.35
2023-04-07T23:20:33.822Z,47.28
2023-04-07T23:23:39.271Z,47.26
2023-04-07T23:26:44.466Z,47.48
2023-04-07T23:29:48.261Z,47.98
2023-04-07T23:32:52.056Z,48.24
2023-04-07T23:35:56.114Z,49.52
2023-04-07T23:38:59.890Z,49.11
2023-04-07T23:42:05.610Z,48.74
2023-04-07T23:45:27.348Z,48.84
2023-04-07T23:48:33.459Z,48.76
2023-04-07T23:51:37.126Z,49.47
2023-04-07T23:54:40.699Z,48.76
2023-04-07T23:57:46.062Z,48.96
